createdAt,value
2022-12-24T00:00:29.900Z,7.25
2022-12-24T00:02:58.444Z,7.78
2022-12-24T00:05:26.943Z,9.93
2022-12-24T00:07:55.411Z,10.20
2022-12-24T00:10:25.668Z,7.85
2022-12-24T00:12:54.682Z,9.95
2022-12-24T00:15:23.049Z,7.57
2022-12-24T00:17:52.951Z,10.75
2022-12-24T00:20:21.248Z,10.95
2022-12-24T00:22:49.610Z,7.78
2022-12-24T00:25:18.613Z,11.73
2022-12-24T00:27:46.941Z,8.32
2022-12-24T00:30:15.337Z,9.27
2022-12-24T00:32:43.756Z,8.55
2022-12-24T00:35:13.623Z,6.68
2022-12-24T00:37:43.860Z,9.18
2022-12-24T00:40:12.563Z,10.00
2022-12-24T00:42:41.189Z,10.10
2022-12-24T00:45:10.620Z,7.47
2022-12-24T00:47:39.174Z,12.05
2022-12-24T00:50:08.284Z,9.23
2022-12-24T00:52:37.988Z,8.93
2022-12-24T00:55:06.621Z,7.97
2022-12-24T00:57:34.964Z,9.43
2022-12-24T01:00:03.559Z,10.65
2022-12-24T01:02:32.409Z,7.47
2022-12-24T01:05:12.850Z,7.97
2022-12-24T01:07:44.452Z,9.13
2022-12-24T01:10:13.843Z,6.43
2022-12-24T01:12:42.565Z,5.07
2022-12-24T01:15:11.279Z,11.85
2022-12-24T01:17:40.013Z,9.48
2022-12-24T01:20:09.169Z,16.02
2022-12-24T01:22:37.602Z,8.32
2022-12-24T01:47:44.551Z,11.45
2022-12-24T01:50:16.584Z,8.20
2022-12-24T01:52:44.996Z,10.80
2022-12-24T01:55:14.955Z,8.40
2022-12-24T01:57:44.758Z,6.78
2022-12-24T02:00:14.691Z,9.38
2022-12-24T02:02:46.150Z,8.35
2022-12-24T02:05:16.768Z,12.45
2022-12-24T02:07:45.069Z,7.15
2022-12-24T02:10:14.563Z,7.63
2022-12-24T02:12:43.932Z,10.07
2022-12-24T02:15:13.770Z,8.50
2022-12-24T02:17:47.253Z,12.32
2022-12-24T02:20:32.567Z,14.55
2022-12-24T02:23:20.946Z,9.88
2022-12-24T02:25:59.116Z,10.85
2022-12-24T02:28:38.220Z,13.40
2022-12-24T02:31:12.100Z,8.38
2022-12-24T02:33:42.913Z,12.48
2022-12-24T02:36:14.928Z,10.20
2022-12-24T02:42:42.246Z,12.10
2022-12-24T02:45:12.196Z,11.00
2022-12-24T02:47:43.312Z,11.32
2022-12-24T02:50:12.638Z,8.63
2022-12-24T02:52:42.390Z,15.27
2022-12-24T02:55:13.851Z,17.17
2022-12-24T02:58:00.130Z,10.15
2022-12-24T03:00:28.983Z,8.70
2022-12-24T03:03:08.454Z,12.73
2022-12-24T03:05:41.605Z,13.00
2022-12-24T03:08:15.057Z,6.82
2022-12-24T03:10:46.877Z,9.57
2022-12-24T03:13:16.220Z,9.95
2022-12-24T03:15:45.405Z,8.77
2022-12-24T03:22:10.603Z,14.38
2022-12-24T03:24:39.009Z,12.38
2022-12-24T03:27:08.197Z,8.80
2022-12-24T03:29:36.605Z,7.70
2022-12-24T03:32:05.491Z,9.93
2022-12-24T03:34:33.818Z,7.03
2022-12-24T03:37:02.132Z,9.85
2022-12-24T03:39:31.774Z,8.98
2022-12-24T03:42:00.106Z,11.02
2022-12-24T03:44:28.383Z,9.13
2022-12-24T03:46:56.711Z,8.23
2022-12-24T03:49:25.030Z,10.85
2022-12-24T03:51:53.334Z,9.50
2022-12-24T03:54:21.853Z,10.05
2022-12-24T03:56:51.522Z,13.43
2022-12-24T03:59:19.977Z,9.60
2022-12-24T04:01:48.457Z,11.38
2022-12-24T04:04:16.982Z,8.63
2022-12-24T04:06:45.296Z,4.35
2022-12-24T04:09:13.621Z,9.52
2022-12-24T04:11:41.885Z,11.90
2022-12-24T04:14:11.551Z,9.07
2022-12-24T04:16:39.985Z,10.88
2022-12-24T04:19:08.433Z,8.98
2022-12-24T04:21:36.791Z,6.75
2022-12-24T04:24:05.266Z,10.93
2022-12-24T04:26:33.598Z,9.93
2022-12-24T04:29:01.876Z,14.43
2022-12-24T04:31:31.716Z,7.63
2022-12-24T04:34:00.135Z,8.93
2022-12-24T04:36:28.415Z,12.85
2022-12-24T04:38:56.788Z,8.27
2022-12-24T04:41:25.736Z,12.65
2022-12-24T04:43:54.741Z,11.68
2022-12-24T04:46:24.506Z,9.50
2022-12-24T04:48:55.283Z,11.10
2022-12-24T04:51:24.304Z,13.77
2022-12-24T04:53:52.821Z,7.57
2022-12-24T04:56:22.311Z,10.95
2022-12-24T04:58:51.007Z,10.52
2022-12-24T05:01:20.820Z,13.32
2022-12-24T05:03:49.567Z,11.70
2022-12-24T05:06:21.028Z,10.68
2022-12-24T05:08:49.707Z,6.80
2022-12-24T05:11:18.490Z,8.45
2022-12-24T05:13:48.219Z,7.22
2022-12-24T05:16:17.322Z,8.18
2022-12-24T05:18:45.685Z,8.35
2022-12-24T05:21:16.291Z,9.90
2022-12-24T05:24:04.065Z,9.07
2022-12-24T05:26:33.755Z,11.52
2022-12-24T05:29:02.949Z,10.40
2022-12-24T05:31:33.275Z,10.90
2022-12-24T05:34:01.726Z,14.13
2022-12-24T05:36:30.051Z,13.88
2022-12-24T05:38:59.971Z,14.63
2022-12-24T05:41:28.347Z,10.50
2022-12-24T05:43:56.664Z,12.18
2022-12-24T05:46:25.880Z,12.60
2022-12-24T05:48:54.746Z,11.43
2022-12-24T05:51:23.424Z,11.68
2022-12-24T05:53:52.422Z,11.73
2022-12-24T05:56:23.036Z,12.70
2022-12-24T05:58:52.038Z,8.93
2022-12-24T06:01:20.875Z,9.18
2022-12-24T06:03:50.083Z,7.35
2022-12-24T06:06:20.905Z,12.30
2022-12-24T06:08:50.119Z,18.67
2022-12-24T06:11:19.912Z,12.07
2022-12-24T06:13:49.677Z,9.70
2022-12-24T06:16:19.214Z,7.65
2022-12-24T06:18:48.020Z,12.95
2022-12-24T06:21:16.348Z,12.82
2022-12-24T06:23:45.394Z,8.85
2022-12-24T06:26:14.795Z,11.30
2022-12-24T06:28:43.493Z,12.00
2022-12-24T06:31:15.015Z,10.65
2022-12-24T06:33:43.605Z,11.73
2022-12-24T06:36:17.421Z,16.20
2022-12-24T06:38:46.441Z,10.27
2022-12-24T06:41:15.195Z,12.05
2022-12-24T06:43:45.617Z,11.90
2022-12-24T06:46:18.329Z,15.52
2022-12-24T06:48:46.814Z,10.65
2022-12-24T06:51:15.726Z,13.98
2022-12-24T06:53:44.158Z,13.77
2022-12-24T06:56:13.707Z,12.85
2022-12-24T06:58:42.445Z,15.00
2022-12-24T07:01:11.905Z,13.73
2022-12-24T07:03:41.916Z,14.30
2022-12-24T07:06:12.964Z,11.38
2022-12-24T07:08:41.277Z,13.02
2022-12-24T07:11:09.575Z,12.00
2022-12-24T07:13:37.972Z,9.75
2022-12-24T07:16:07.000Z,15.52
2022-12-24T07:18:35.567Z,16.60
2022-12-24T07:21:07.144Z,17.65
2022-12-24T07:23:35.889Z,14.02
2022-12-24T07:26:04.903Z,11.80
2022-12-24T07:28:33.246Z,14.52
2022-12-24T07:31:01.738Z,13.10
2022-12-24T07:33:30.168Z,7.90
2022-12-24T07:36:02.702Z,13.88
2022-12-24T07:38:32.912Z,13.73
2022-12-24T07:41:01.630Z,12.05
2022-12-24T07:43:30.220Z,11.20
2022-12-24T07:45:59.150Z,16.20
2022-12-24T07:48:27.808Z,16.70
2022-12-24T07:50:56.197Z,12.70
2022-12-24T07:53:24.529Z,15.75
2022-12-24T07:55:54.263Z,15.02
2022-12-24T07:58:22.881Z,11.90
2022-12-24T08:00:51.457Z,18.15
2022-12-24T08:03:20.924Z,21.80
2022-12-24T08:05:49.777Z,17.52
2022-12-24T08:08:18.117Z,14.30
2022-12-24T08:10:47.250Z,14.45
2022-12-24T08:13:17.050Z,13.35
2022-12-24T08:15:45.626Z,13.10
2022-12-24T08:18:13.998Z,15.20
2022-12-24T08:20:42.819Z,15.45
2022-12-24T08:23:11.329Z,9.02
2022-12-24T08:25:39.886Z,14.60
2022-12-24T08:28:08.528Z,14.52
2022-12-24T08:30:38.335Z,13.20
2022-12-24T08:33:06.679Z,12.20
2022-12-24T08:35:34.995Z,21.65
2022-12-24T08:38:03.405Z,19.40
2022-12-24T08:40:32.344Z,17.27
2022-12-24T08:43:03.702Z,12.02
2022-12-24T08:45:39.722Z,17.85
2022-12-24T08:48:11.290Z,14.70
2022-12-24T08:50:40.860Z,16.92
2022-12-24T08:53:17.799Z,15.98
2022-12-24T08:56:24.072Z,20.25
2022-12-24T08:58:55.945Z,22.23
2022-12-24T09:01:25.249Z,19.48
2022-12-24T09:03:55.270Z,20.88
2022-12-24T09:06:24.029Z,21.83
2022-12-24T09:08:52.662Z,16.52
2022-12-24T09:11:22.443Z,15.57
2022-12-24T09:13:50.869Z,21.80
2022-12-24T09:16:19.323Z,20.25
2022-12-24T09:18:48.064Z,15.50
2022-12-24T09:21:18.704Z,18.80
2022-12-24T09:23:47.999Z,22.92
2022-12-24T09:26:17.346Z,15.32
2022-12-24T09:28:45.936Z,16.02
2022-12-24T09:31:14.884Z,18.42
2022-12-24T09:33:43.871Z,22.08
2022-12-24T09:36:12.344Z,21.25
2022-12-24T09:38:42.183Z,17.85
2022-12-24T09:41:14.607Z,21.10
2022-12-24T09:43:58.325Z,22.33
2022-12-24T09:46:31.871Z,14.63
2022-12-24T09:49:04.956Z,18.92
2022-12-24T09:51:40.410Z,24.02
2022-12-24T09:54:15.498Z,16.85
2022-12-24T09:56:46.302Z,12.93
2022-12-24T09:59:16.194Z,15.57
2022-12-24T10:01:45.072Z,24.17
2022-12-24T10:04:15.062Z,26.38
2022-12-24T10:06:50.179Z,21.85
2022-12-24T10:09:26.725Z,16.92
2022-12-24T10:11:58.144Z,13.52
2022-12-24T10:14:40.315Z,19.33
2022-12-24T10:17:21.682Z,21.73
2022-12-24T10:19:54.054Z,19.52
2022-12-24T10:22:31.778Z,19.90
2022-12-24T10:25:04.877Z,15.40
2022-12-24T10:27:36.581Z,16.67
2022-12-24T10:30:14.974Z,22.67
2022-12-24T10:32:45.224Z,15.65
2022-12-24T10:35:20.928Z,16.98
2022-12-24T10:37:49.860Z,26.25
2022-12-24T10:40:24.768Z,26.85
2022-12-24T10:42:54.025Z,18.05
2022-12-24T10:45:23.848Z,17.02
2022-12-24T10:47:54.335Z,18.48
2022-12-24T10:50:25.899Z,14.18
2022-12-24T10:52:57.106Z,13.13
2022-12-24T10:55:28.177Z,14.98
2022-12-24T10:58:02.072Z,14.38
2022-12-24T11:00:35.830Z,16.17
2022-12-24T11:03:10.189Z,14.77
2022-12-24T11:05:38.990Z,14.00
2022-12-24T11:08:08.462Z,18.55
2022-12-24T11:10:41.904Z,16.02
2022-12-24T11:13:39.717Z,19.40
2022-12-24T11:16:09.908Z,11.45
2022-12-24T11:18:40.152Z,19.13
2022-12-24T11:21:10.786Z,13.80
2022-12-24T11:23:39.044Z,15.95
2022-12-24T11:26:08.662Z,19.98
2022-12-24T11:28:37.359Z,16.58
2022-12-24T11:31:07.084Z,17.13
2022-12-24T11:33:47.823Z,14.35
2022-12-24T11:36:16.298Z,14.88
2022-12-24T11:38:44.601Z,14.52
2022-12-24T11:41:15.008Z,13.80
2022-12-24T11:43:47.843Z,15.32
2022-12-24T11:46:18.213Z,16.25
2022-12-24T11:49:08.341Z,17.02
2022-12-24T11:52:10.157Z,19.08
2022-12-24T11:54:42.748Z,16.73
2022-12-24T12:01:55.277Z,17.30
2022-12-24T12:09:22.675Z,16.75
2022-12-24T12:13:52.730Z,10.45
2022-12-24T12:16:38.765Z,14.05
2022-12-24T12:19:51.574Z,15.55
2022-12-24T12:23:51.703Z,15.70
2022-12-24T12:26:36.931Z,16.33
2022-12-24T12:29:23.976Z,17.90
2022-12-24T12:31:56.798Z,11.68
2022-12-24T12:34:28.398Z,14.40
2022-12-24T12:36:59.009Z,13.98
2022-12-24T12:39:27.610Z,13.52
2022-12-24T12:42:26.652Z,17.17
2022-12-24T12:45:13.694Z,14.85
2022-12-24T12:47:59.163Z,12.95
2022-12-24T12:50:32.671Z,11.77
2022-12-24T12:56:41.915Z,10.45
2022-12-24T13:03:29.823Z,14.02
2022-12-24T13:06:32.294Z,16.48
2022-12-24T13:09:24.935Z,26.35
2022-12-24T13:15:46.882Z,18.30
2022-12-24T13:18:28.370Z,13.98
2022-12-24T13:20:56.850Z,12.05
2022-12-24T13:23:28.152Z,10.13
2022-12-24T13:25:59.193Z,16.70
2022-12-24T13:28:36.871Z,22.20
2022-12-24T13:31:27.835Z,21.98
2022-12-24T13:33:57.474Z,28.35
2022-12-24T13:36:26.290Z,25.73
2022-12-24T13:38:56.935Z,18.35
2022-12-24T13:41:55.679Z,22.08
2022-12-24T13:44:32.543Z,14.75
2022-12-24T13:47:03.241Z,25.50
2022-12-24T13:49:33.627Z,17.38
2022-12-24T13:52:09.520Z,17.70
2022-12-24T13:54:39.268Z,17.85
2022-12-24T13:57:25.009Z,16.17
2022-12-24T13:59:58.802Z,13.82
2022-12-24T14:02:28.225Z,18.55
2022-12-24T14:05:01.264Z,16.23
2022-12-24T14:07:29.933Z,19.45
2022-12-24T14:09:59.169Z,13.02
2022-12-24T14:12:46.585Z,20.35
2022-12-24T14:15:34.202Z,13.73
2022-12-24T14:18:04.000Z,14.73
2022-12-24T14:20:33.551Z,13.45
2022-12-24T14:23:01.951Z,19.98
2022-12-24T14:25:31.083Z,17.42
2022-12-24T14:28:01.503Z,11.15
2022-12-24T14:30:31.412Z,14.13
2022-12-24T14:33:00.062Z,12.25
2022-12-24T14:35:32.181Z,21.63
2022-12-24T14:38:01.730Z,17.30
2022-12-24T14:40:31.486Z,17.02
2022-12-24T14:43:03.033Z,17.55
2022-12-24T14:45:33.981Z,20.33
2022-12-24T14:48:07.140Z,25.20
2022-12-24T14:50:41.546Z,18.23
2022-12-24T14:53:19.670Z,16.55
2022-12-24T14:55:49.056Z,19.92
2022-12-24T14:58:27.823Z,20.73
2022-12-24T15:00:57.444Z,15.75
2022-12-24T15:03:27.485Z,20.48
2022-12-24T15:05:58.158Z,19.70
2022-12-24T15:08:29.904Z,18.60
2022-12-24T15:11:01.395Z,14.98
2022-12-24T15:13:36.480Z,19.85
2022-12-24T15:16:06.781Z,12.90
2022-12-24T15:18:36.006Z,18.40
2022-12-24T15:25:19.547Z,13.35
2022-12-24T15:27:48.103Z,14.40
2022-12-24T15:30:17.789Z,12.32
2022-12-24T15:32:46.103Z,20.25
2022-12-24T15:35:34.919Z,16.17
2022-12-24T15:38:04.127Z,12.55
2022-12-24T15:40:34.830Z,17.45
2022-12-24T15:43:03.875Z,17.13
2022-12-24T15:45:35.732Z,17.77
2022-12-24T15:48:09.423Z,18.17
2022-12-24T15:50:39.103Z,21.13
2022-12-24T15:53:19.932Z,15.90
2022-12-24T15:56:03.859Z,17.25
2022-12-24T15:58:33.235Z,21.08
2022-12-24T16:01:02.674Z,18.25
2022-12-24T16:03:31.392Z,18.63
2022-12-24T16:06:03.861Z,15.48
2022-12-24T16:08:36.345Z,17.75
2022-12-24T16:11:15.976Z,25.42
2022-12-24T16:13:54.381Z,14.05
2022-12-24T16:16:24.188Z,15.65
2022-12-24T16:18:54.261Z,16.15
2022-12-24T16:21:24.610Z,18.00
2022-12-24T16:23:55.099Z,19.88
2022-12-24T16:26:24.890Z,17.77
2022-12-24T16:28:53.222Z,18.75
2022-12-24T16:31:29.784Z,16.73
2022-12-24T16:33:59.366Z,13.95
2022-12-24T16:36:27.813Z,10.90
2022-12-24T16:39:14.045Z,20.65
2022-12-24T16:42:01.645Z,12.43
2022-12-24T16:44:31.841Z,12.63
2022-12-24T16:47:00.719Z,16.52
2022-12-24T16:49:30.777Z,9.55
2022-12-24T16:51:59.271Z,13.90
2022-12-24T16:54:32.572Z,16.50
2022-12-24T16:57:02.994Z,19.35
2022-12-24T16:59:32.585Z,19.75
2022-12-24T17:02:07.935Z,18.77
2022-12-24T17:05:46.055Z,10.68
2022-12-24T17:08:32.308Z,11.73
2022-12-24T17:11:05.677Z,13.55
2022-12-24T17:13:36.642Z,11.18
2022-12-24T17:16:07.241Z,11.25
2022-12-24T17:18:35.965Z,10.85
2022-12-24T17:21:05.025Z,14.10
2022-12-24T17:23:35.196Z,7.13
2022-12-24T17:26:08.925Z,9.27
2022-12-24T17:28:42.452Z,12.57
2022-12-24T17:31:17.732Z,15.07
2022-12-24T17:33:50.224Z,16.17
2022-12-24T17:36:44.179Z,17.27
2022-12-24T17:39:12.710Z,11.55
2022-12-24T17:41:41.046Z,8.88
2022-12-24T17:44:13.612Z,7.55
2022-12-24T17:46:42.168Z,10.95
2022-12-24T17:49:10.538Z,7.53
2022-12-24T17:51:45.054Z,9.50
2022-12-24T17:54:16.215Z,12.15
2022-12-24T17:56:48.274Z,10.73
2022-12-24T17:59:18.001Z,8.48
2022-12-24T18:01:49.612Z,8.98
2022-12-24T18:04:19.299Z,12.82
2022-12-24T18:06:49.733Z,14.90
2022-12-24T18:09:19.495Z,12.70
2022-12-24T18:11:47.932Z,12.25
2022-12-24T18:14:17.611Z,13.30
2022-12-24T18:53:00.028Z,11.35
2022-12-24T18:55:28.338Z,14.43
2022-12-24T18:57:56.617Z,11.55
2022-12-24T19:00:25.145Z,13.68
2022-12-24T19:02:53.659Z,16.52
2022-12-24T19:05:22.136Z,16.75
2022-12-24T19:07:50.466Z,11.38
2022-12-24T19:10:20.220Z,12.45
2022-12-24T19:12:48.606Z,17.10
2022-12-24T19:15:16.994Z,14.90
2022-12-24T19:18:04.292Z,15.30
2022-12-24T19:20:32.684Z,20.85
2022-12-24T19:23:00.996Z,17.05
2022-12-24T19:25:30.643Z,14.90
2022-12-24T19:27:58.951Z,16.30
2022-12-24T19:30:27.294Z,15.32
2022-12-24T19:32:55.631Z,11.85
2022-12-24T19:35:23.996Z,15.40
2022-12-24T19:37:52.321Z,16.13
2022-12-24T19:40:20.787Z,14.95
2022-12-24T19:42:52.129Z,16.10
2022-12-24T19:45:20.501Z,12.32
2022-12-24T19:47:49.244Z,8.95
2022-12-24T19:50:17.949Z,14.30
2022-12-24T19:52:46.735Z,12.27
2022-12-24T19:55:15.667Z,14.52
2022-12-24T19:57:44.134Z,14.18
2022-12-24T20:00:14.336Z,13.45
2022-12-24T20:02:42.766Z,15.35
2022-12-24T20:05:11.397Z,14.93
2022-12-24T20:07:39.740Z,15.75
2022-12-24T20:10:08.798Z,14.05
2022-12-24T20:12:37.168Z,15.27
2022-12-24T20:15:05.984Z,13.50
2022-12-24T20:17:35.654Z,10.68
2022-12-24T20:20:04.005Z,16.50
2022-12-24T20:22:32.362Z,14.80
2022-12-24T20:25:00.678Z,17.42
2022-12-24T20:27:29.069Z,15.98
2022-12-24T20:29:57.527Z,14.40
2022-12-24T20:32:25.877Z,11.02
2022-12-24T20:34:55.792Z,14.75
2022-12-24T20:37:24.173Z,11.57
2022-12-24T20:39:52.528Z,12.23
2022-12-24T20:42:21.016Z,15.50
2022-12-24T20:44:52.984Z,18.15
2022-12-24T20:47:21.389Z,10.40
2022-12-24T20:49:57.194Z,13.23
2022-12-24T20:52:27.137Z,16.45
2022-12-24T20:54:55.480Z,9.20
2022-12-24T20:57:27.692Z,11.35
2022-12-24T20:59:58.416Z,9.95
2022-12-24T21:02:28.427Z,18.60
2022-12-24T21:05:01.862Z,13.68
2022-12-24T21:07:32.615Z,12.80
2022-12-24T21:10:01.055Z,11.05
2022-12-24T21:12:47.120Z,15.65
2022-12-24T21:15:15.675Z,16.50
2022-12-24T21:17:44.191Z,13.45
2022-12-24T21:20:13.823Z,16.30
2022-12-24T21:23:14.922Z,13.75
2022-12-24T21:25:44.675Z,19.67
2022-12-24T21:28:17.557Z,14.55
2022-12-24T21:30:45.978Z,16.42
2022-12-24T21:33:14.337Z,19.42
2022-12-24T21:35:42.755Z,14.98
2022-12-24T21:38:11.440Z,19.92
2022-12-24T21:40:39.931Z,17.98
2022-12-24T21:43:09.939Z,19.55
2022-12-24T21:45:41.322Z,22.27
2022-12-24T21:48:30.904Z,20.92
2022-12-24T21:50:58.396Z,20.38
2022-12-24T21:53:44.492Z,19.65
2022-12-24T21:56:13.707Z,20.73
2022-12-24T21:58:42.531Z,22.80
2022-12-24T22:01:13.875Z,21.27
2022-12-24T22:03:43.680Z,20.00
2022-12-24T22:06:36.110Z,17.52
2022-12-24T22:09:22.842Z,17.15
2022-12-24T22:11:54.652Z,14.48
2022-12-24T22:14:25.235Z,14.88
2022-12-24T22:16:53.726Z,17.48
2022-12-24T22:19:22.273Z,13.20
2022-12-24T22:21:50.652Z,14.65
2022-12-24T22:24:19.438Z,19.02
2022-12-24T22:26:47.956Z,16.52
2022-12-24T22:29:16.845Z,19.55
2022-12-24T22:31:46.641Z,17.73
2022-12-24T22:34:15.098Z,18.27
2022-12-24T22:36:43.800Z,16.80
2022-12-24T22:39:12.444Z,19.10
2022-12-24T22:41:40.764Z,17.60
2022-12-24T22:44:09.888Z,17.27
2022-12-24T22:46:38.373Z,20.35
2022-12-24T22:49:08.068Z,25.17
2022-12-24T22:51:37.390Z,14.70
2022-12-24T22:54:05.893Z,17.60
2022-12-24T22:56:40.722Z,17.98
2022-12-24T22:59:09.741Z,20.10
2022-12-24T23:01:39.206Z,16.25
2022-12-24T23:04:09.397Z,19.00
2022-12-24T23:06:37.872Z,21.90
2022-12-24T23:09:07.689Z,19.40
2022-12-24T23:11:36.171Z,17.75
2022-12-24T23:14:22.067Z,17.90
2022-12-24T23:16:50.356Z,15.10
2022-12-24T23:19:20.077Z,19.73
2022-12-24T23:21:48.452Z,19.52
2022-12-24T23:24:16.874Z,20.48
2022-12-24T23:26:45.244Z,17.98
2022-12-24T23:29:13.631Z,18.80
2022-12-24T23:31:42.106Z,20.75
2022-12-24T23:34:10.451Z,19.00
2022-12-24T23:36:40.187Z,16.10
2022-12-24T23:39:08.644Z,18.23
2022-12-24T23:41:37.028Z,19.42
2022-12-24T23:44:05.617Z,17.35
2022-12-24T23:46:34.048Z,18.80
2022-12-24T23:49:02.444Z,14.63
2022-12-24T23:51:30.912Z,20.08
2022-12-24T23:54:00.618Z,19.90
2022-12-24T23:56:29.001Z,17.88
2022-12-24T23:58:57.286Z,14.18
